Time;durP1;ratioP1;P1;durP2;ratioP2;P2;SDS_P1;SDS_P2;PMS_P1;PMS_P2;Temp;Humidity;BMP_temperature;BMP_pressure;BME280_temperature;BME280_humidity;BME280_pressure;Samples;Min_cycle;Max_cycle;Signal;HPM_P1;HPM_P2
2021/06/14 00:04:31;;;;;;;5.43;3.70;;;;;;;;;;5074503;28;20935;-68
2021/06/14 00:06:57;;;;;;;4.30;2.70;;;;;;;;;;5074602;28;20426;-70
2021/06/14 00:09:24;;;;;;;5.10;3.03;;;;;;;;;;5074162;28;20766;-68
2021/06/14 00:11:51;;;;;;;4.23;3.77;;;;;;;;;;5074410;28;20454;-67
2021/06/14 00:14:18;;;;;;;5.40;2.80;;;;;;;;;;5074418;28;20421;-67
2021/06/14 00:19:48;;;;;;;5.63;2.90;;;;;;;;;;5074049;28;20417;-71
2021/06/14 00:22:14;;;;;;;4.07;2.80;;;;;;;;;;5074152;28;20406;-69
2021/06/14 00:24:40;;;;;;;4.20;2.80;;;;;;;;;;5074014;28;20519;-69
2021/06/14 00:27:06;;;;;;;5.07;2.67;;;;;;;;;;5074080;28;20803;-69
2021/06/14 00:29:32;;;;;;;5.13;3.03;;;;;;;;;;5073469;28;20904;-70
2021/06/14 00:31:58;;;;;;;3.17;2.83;;;;;;;;;;5073861;28;20453;-72
2021/06/14 00:34:24;;;;;;;4.40;2.70;;;;;;;;;;5073588;28;20877;-68
2021/06/14 00:36:50;;;;;;;3.00;2.00;;;;;;;;;;5073734;28;20429;-68
2021/06/14 00:39:16;;;;;;;4.93;2.60;;;;;;;;;;5073702;28;20912;-70
2021/06/14 00:41:42;;;;;;;4.50;2.30;;;;;;;;;;5073677;28;20415;-69
2021/06/14 00:44:09;;;;;;;3.23;2.93;;;;;;;;;;5073648;28;20425;-69
2021/06/14 00:49:38;;;;;;;5.50;3.40;;;;;;;;;;5072740;28;20555;-68
2021/06/14 00:52:05;;;;;;;3.17;2.33;;;;;;;;;;5073489;28;20406;-69
2021/06/14 00:54:31;;;;;;;3.90;3.20;;;;;;;;;;5073251;28;20471;-69
2021/06/14 00:56:57;;;;;;;2.83;2.17;;;;;;;;;;5072410;28;20517;-68
2021/06/14 00:59:24;;;;;;;3.50;3.17;;;;;;;;;;5073533;28;20422;-69
2021/06/14 01:04:55;;;;;;;5.50;2.70;;;;;;;;;;5072934;28;20476;-69
2021/06/14 01:07:21;;;;;;;4.33;3.27;;;;;;;;;;5073164;28;20447;-68
2021/06/14 01:09:47;;;;;;;4.20;2.83;;;;;;;;;;5072733;28;20410;-70
2021/06/14 01:12:14;;;;;;;4.10;3.40;;;;;;;;;;5073207;28;20454;-69
2021/06/14 01:21:23;;;;;;;4.60;3.40;;;;;;;;;;5072531;28;20470;-70
2021/06/14 01:23:52;;;;;;;3.63;2.53;;;;;;;;;;5090663;28;20433;-69
2021/06/14 01:26:20;;;;;;;3.20;2.90;;;;;;;;;;5075803;28;20569;-70
2021/06/14 01:28:46;;;;;;;4.30;2.90;;;;;;;;;;5072714;28;20415;-70
2021/06/14 01:31:13;;;;;;;4.73;2.70;;;;;;;;;;5072613;28;20479;-68
2021/06/14 01:33:40;;;;;;;3.07;2.63;;;;;;;;;;5072499;28;20485;-69
2021/06/14 01:36:06;;;;;;;3.33;3.03;;;;;;;;;;5072443;28;20461;-68
2021/06/14 01:38:33;;;;;;;3.37;3.00;;;;;;;;;;5071188;28;20755;-70
2021/06/14 01:41:01;;;;;;;3.30;2.87;;;;;;;;;;5072986;28;20426;-69
2021/06/14 01:43:28;;;;;;;3.47;2.63;;;;;;;;;;5072553;28;20410;-69
2021/06/14 01:45:56;;;;;;;3.83;3.53;;;;;;;;;;5072293;28;20556;-69
2021/06/14 01:48:22;;;;;;;5.27;3.70;;;;;;;;;;5072379;28;20519;-68
2021/06/14 01:50:49;;;;;;;5.20;3.40;;;;;;;;;;5070562;28;20438;-70
2021/06/14 01:53:16;;;;;;;3.63;3.33;;;;;;;;;;5071939;28;20502;-71
2021/06/14 01:55:42;;;;;;;4.80;3.60;;;;;;;;;;5070781;28;20438;-69
2021/06/14 01:58:08;;;;;;;2.87;2.57;;;;;;;;;;5072338;28;20402;-72
2021/06/14 02:00:38;;;;;;;4.03;2.90;;;;;;;;;;5072144;28;20627;-68
2021/06/14 02:03:05;;;;;;;6.03;3.07;;;;;;;;;;5072427;28;20485;-68
2021/06/14 02:05:32;;;;;;;4.70;3.20;;;;;;;;;;5071958;28;20465;-69
2021/06/14 02:07:58;;;;;;;3.90;3.27;;;;;;;;;;5071939;28;20463;-70
2021/06/14 02:10:24;;;;;;;7.50;2.83;;;;;;;;;;5072019;28;20491;-69
2021/06/14 02:12:51;;;;;;;3.73;3.37;;;;;;;;;;5071643;28;20429;-68
2021/06/14 02:15:17;;;;;;;4.70;3.10;;;;;;;;;;5071884;28;20398;-68
2021/06/14 02:17:45;;;;;;;5.07;3.60;;;;;;;;;;5072065;28;20524;-69
2021/06/14 02:20:11;;;;;;;4.87;3.90;;;;;;;;;;5070396;28;20406;-69
2021/06/14 02:22:37;;;;;;;4.33;2.90;;;;;;;;;;5069438;28;20425;-69
2021/06/14 02:25:05;;;;;;;4.37;2.93;;;;;;;;;;5070807;28;20470;-69
2021/06/14 02:27:31;;;;;;;4.03;3.43;;;;;;;;;;5071890;28;20425;-69
2021/06/14 02:29:57;;;;;;;4.90;3.27;;;;;;;;;;5072052;28;20416;-69
2021/06/14 02:35:27;;;;;;;4.47;3.13;;;;;;;;;;5071228;28;20549;-69
2021/06/14 02:37:57;;;;;;;4.47;2.90;;;;;;;;;;5070774;28;20437;-69
2021/06/14 02:40:24;;;;;;;5.20;3.40;;;;;;;;;;5071732;28;20876;-68
2021/06/14 02:42:51;;;;;;;3.37;3.07;;;;;;;;;;5070426;28;20451;-69
2021/06/14 02:45:17;;;;;;;5.73;2.90;;;;;;;;;;5071892;28;20482;-69
2021/06/14 02:47:44;;;;;;;6.20;3.50;;;;;;;;;;5071980;28;20418;-70
2021/06/14 02:50:11;;;;;;;3.90;3.40;;;;;;;;;;5071490;28;20408;-69
2021/06/14 02:52:39;;;;;;;4.93;3.10;;;;;;;;;;5071659;28;20447;-68
2021/06/14 02:55:07;;;;;;;4.17;3.70;;;;;;;;;;5070794;28;20980;-69
2021/06/14 02:57:34;;;;;;;3.60;3.30;;;;;;;;;;5071503;28;20440;-69
2021/06/14 03:00:01;;;;;;;4.00;3.57;;;;;;;;;;5071457;28;20429;-70
2021/06/14 03:05:30;;;;;;;3.53;3.23;;;;;;;;;;5071406;28;20873;-69
2021/06/14 03:07:57;;;;;;;4.23;3.20;;;;;;;;;;5071395;28;20913;-69
2021/06/14 03:10:24;;;;;;;3.83;2.63;;;;;;;;;;5071891;28;20468;-69
2021/06/14 03:12:52;;;;;;;4.50;3.47;;;;;;;;;;5071741;28;20753;-68
2021/06/14 03:15:18;;;;;;;4.67;3.63;;;;;;;;;;5070915;28;20479;-69
2021/06/14 03:20:48;;;;;;;4.40;3.20;;;;;;;;;;5071318;28;20405;-67
2021/06/14 03:23:15;;;;;;;4.30;3.30;;;;;;;;;;5070039;28;20479;-69
2021/06/14 03:25:42;;;;;;;4.20;3.03;;;;;;;;;;5074577;28;20502;-69
2021/06/14 03:28:09;;;;;;;3.70;2.90;;;;;;;;;;5073436;28;20426;-68
2021/06/14 03:30:35;;;;;;;3.00;2.80;;;;;;;;;;5074699;28;20426;-69
2021/06/14 03:36:06;;;;;;;7.10;3.03;;;;;;;;;;5074203;28;21049;-71
2021/06/14 03:38:32;;;;;;;4.30;3.20;;;;;;;;;;5074401;28;20422;-68
2021/06/14 03:40:58;;;;;;;5.57;3.33;;;;;;;;;;5074846;28;20402;-68
2021/06/14 03:43:25;;;;;;;4.37;2.70;;;;;;;;;;5073147;28;20426;-71
2021/06/14 03:45:51;;;;;;;2.63;2.40;;;;;;;;;;5074357;28;20466;-68
2021/06/14 03:48:17;;;;;;;5.63;2.83;;;;;;;;;;5074432;28;20410;-68
2021/06/14 03:50:43;;;;;;;2.70;2.50;;;;;;;;;;5074334;28;20414;-68
2021/06/14 03:53:09;;;;;;;2.80;2.60;;;;;;;;;;5073041;28;20599;-69
2021/06/14 03:55:35;;;;;;;2.87;2.57;;;;;;;;;;5074290;28;20816;-69
2021/06/14 03:58:01;;;;;;;4.43;2.80;;;;;;;;;;5074418;28;20452;-68
2021/06/14 04:00:27;;;;;;;6.60;3.33;;;;;;;;;;5074184;28;20418;-70
2021/06/14 04:05:58;;;;;;;5.30;3.33;;;;;;;;;;5074287;28;20483;-69
2021/06/14 04:08:24;;;;;;;3.37;3.07;;;;;;;;;;5074500;28;20517;-69
2021/06/14 04:10:50;;;;;;;4.70;3.57;;;;;;;;;;5074047;28;20452;-69
2021/06/14 04:13:16;;;;;;;5.70;2.80;;;;;;;;;;5073914;28;20414;-70
2021/06/14 04:15:42;;;;;;;3.40;3.03;;;;;;;;;;5074052;28;20792;-70
2021/06/14 04:21:12;;;;;;;6.33;3.67;;;;;;;;;;5073825;28;20413;-68
2021/06/14 04:23:38;;;;;;;4.80;3.30;;;;;;;;;;5073833;28;20422;-69
2021/06/14 04:26:04;;;;;;;5.73;3.10;;;;;;;;;;5073998;28;20545;-69
2021/06/14 04:28:30;;;;;;;4.67;3.20;;;;;;;;;;5073958;28;20836;-68
2021/06/14 04:30:56;;;;;;;5.87;3.00;;;;;;;;;;5073720;28;20497;-69
2021/06/14 04:36:26;;;;;;;6.07;3.80;;;;;;;;;;5073720;28;20642;-70
2021/06/14 04:38:52;;;;;;;7.50;3.33;;;;;;;;;;5073772;28;20417;-67
2021/06/14 04:41:17;;;;;;;3.20;2.90;;;;;;;;;;5073623;28;20406;-70
2021/06/14 04:43:43;;;;;;;3.77;3.20;;;;;;;;;;5073615;28;20475;-68
2021/06/14 04:51:57;;;;;;;7.57;3.90;;;;;;;;;;5073550;28;20468;-69
2021/06/14 04:54:23;;;;;;;5.03;3.40;;;;;;;;;;5073297;28;20422;-68
2021/06/14 04:56:49;;;;;;;4.77;2.97;;;;;;;;;;5073639;28;20551;-69
2021/06/14 04:59:15;;;;;;;4.17;3.10;;;;;;;;;;5072028;28;20987;-69
2021/06/14 05:01:43;;;;;;;4.50;3.17;;;;;;;;;;5071805;28;20426;-70
2021/06/14 05:04:09;;;;;;;7.80;3.20;;;;;;;;;;5072945;28;20441;-70
2021/06/14 05:06:35;;;;;;;4.30;3.80;;;;;;;;;;5073301;28;20426;-68
2021/06/14 05:09:01;;;;;;;4.00;3.33;;;;;;;;;;5072978;28;20417;-70
2021/06/14 05:11:27;;;;;;;9.10;3.87;;;;;;;;;;5073064;28;20441;-69
2021/06/14 05:13:53;;;;;;;5.50;4.13;;;;;;;;;;5072905;28;20407;-69
2021/06/14 05:16:19;;;;;;;5.73;3.63;;;;;;;;;;5073285;28;20834;-69
2021/06/14 05:18:45;;;;;;;5.60;3.80;;;;;;;;;;5073047;28;20742;-70
2021/06/14 05:21:11;;;;;;;4.70;3.20;;;;;;;;;;5072692;28;20433;-69
2021/06/14 05:23:37;;;;;;;4.73;3.20;;;;;;;;;;5072754;28;20810;-70
2021/06/14 05:26:03;;;;;;;4.17;3.70;;;;;;;;;;5072254;28;20473;-68
2021/06/14 05:28:29;;;;;;;6.70;4.43;;;;;;;;;;5072372;28;20406;-70
2021/06/14 05:30:55;;;;;;;5.60;3.63;;;;;;;;;;5072302;28;20778;-70
2021/06/14 05:36:25;;;;;;;3.87;3.23;;;;;;;;;;5072160;28;20527;-68
2021/06/14 05:38:51;;;;;;;4.33;3.70;;;;;;;;;;5072614;28;20418;-70
2021/06/14 05:41:17;;;;;;;4.67;3.07;;;;;;;;;;5070841;28;20434;-69
2021/06/14 05:43:43;;;;;;;3.70;3.07;;;;;;;;;;5072154;28;20467;-70
2021/06/14 05:46:09;;;;;;;7.13;3.63;;;;;;;;;;5071944;28;20751;-70
2021/06/14 05:51:38;;;;;;;9.27;4.23;;;;;;;;;;5072126;28;20776;-69
2021/06/14 05:54:05;;;;;;;5.63;3.77;;;;;;;;;;5072199;28;20418;-70
2021/06/14 05:56:31;;;;;;;13.53;3.70;;;;;;;;;;5072161;28;20562;-70
2021/06/14 05:58:57;;;;;;;7.23;3.43;;;;;;;;;;5071769;28;20923;-70
2021/06/14 06:01:23;;;;;;;8.23;4.07;;;;;;;;;;5071474;28;20411;-70
2021/06/14 06:06:52;;;;;;;5.87;3.40;;;;;;;;;;5070913;28;20441;-70
2021/06/14 06:09:18;;;;;;;11.07;6.33;;;;;;;;;;5070012;28;20418;-68
2021/06/14 06:11:44;;;;;;;11.83;3.87;;;;;;;;;;5071676;28;20575;-71
2021/06/14 06:14:10;;;;;;;16.37;4.63;;;;;;;;;;5071772;28;20848;-69
2021/06/14 06:16:36;;;;;;;7.57;3.70;;;;;;;;;;5071631;28;20450;-71
2021/06/14 06:22:06;;;;;;;10.53;3.70;;;;;;;;;;5071313;28;20501;-69
2021/06/14 06:24:32;;;;;;;8.60;3.63;;;;;;;;;;5070672;28;20808;-69
2021/06/14 06:26:59;;;;;;;9.67;4.60;;;;;;;;;;5071449;28;21011;-69
2021/06/14 06:29:25;;;;;;;8.90;3.70;;;;;;;;;;5071101;28;20410;-69
2021/06/14 06:31:51;;;;;;;12.13;4.10;;;;;;;;;;5071441;28;20418;-68
2021/06/14 06:34:17;;;;;;;10.03;4.13;;;;;;;;;;5071367;28;20966;-68
2021/06/14 06:36:43;;;;;;;9.23;3.87;;;;;;;;;;5071300;28;20414;-71
2021/06/14 06:39:09;;;;;;;8.53;3.60;;;;;;;;;;5071574;28;20407;-68
2021/06/14 06:41:35;;;;;;;7.57;3.97;;;;;;;;;;5071250;28;20881;-69
2021/06/14 06:44:01;;;;;;;9.93;3.30;;;;;;;;;;5071540;28;20410;-70
2021/06/14 06:46:27;;;;;;;4.90;3.30;;;;;;;;;;5071504;28;20834;-69
2021/06/14 06:51:57;;;;;;;7.80;4.00;;;;;;;;;;5071329;28;20408;-69
2021/06/14 06:54:23;;;;;;;9.33;3.50;;;;;;;;;;5071987;28;20446;-69
2021/06/14 06:56:50;;;;;;;5.83;3.37;;;;;;;;;;5071635;28;20430;-70
2021/06/14 06:59:16;;;;;;;3.43;2.77;;;;;;;;;;5072924;28;20406;-71
2021/06/14 07:01:44;;;;;;;3.83;2.80;;;;;;;;;;5075004;28;20406;-68
2021/06/14 07:07:14;;;;;;;3.73;3.20;;;;;;;;;;5074969;28;20444;-69
2021/06/14 07:09:40;;;;;;;3.70;3.20;;;;;;;;;;5074949;28;20500;-69
2021/06/14 07:12:06;;;;;;;11.37;4.13;;;;;;;;;;5075638;28;20413;-69
2021/06/14 07:14:32;;;;;;;7.13;3.30;;;;;;;;;;5073896;28;20422;-69
2021/06/14 07:16:58;;;;;;;3.80;3.50;;;;;;;;;;5073825;28;20474;-70
2021/06/14 07:22:28;;;;;;;3.77;3.07;;;;;;;;;;5075086;28;20501;-76
2021/06/14 07:24:54;;;;;;;4.27;3.33;;;;;;;;;;5074474;28;20544;-78
2021/06/14 07:27:20;;;;;;;7.90;3.33;;;;;;;;;;5072143;28;20456;-78
2021/06/14 07:29:46;;;;;;;3.83;3.27;;;;;;;;;;5073393;28;20489;-80
2021/06/14 07:32:12;;;;;;;9.50;3.33;;;;;;;;;;5074091;28;20422;-80
2021/06/14 07:34:38;;;;;;;3.97;2.83;;;;;;;;;;5073663;28;20489;-79
2021/06/14 07:37:06;;;;;;;5.77;3.40;;;;;;;;;;5074324;28;20413;-80
2021/06/14 07:39:33;;;;;;;5.17;2.73;;;;;;;;;;5072390;28;20462;-78
2021/06/14 07:41:59;;;;;;;9.90;2.60;;;;;;;;;;5073564;28;20406;-78
2021/06/14 07:44:25;;;;;;;5.20;2.60;;;;;;;;;;5074088;28;20406;-78
2021/06/14 07:46:51;;;;;;;4.00;3.30;;;;;;;;;;5072550;28;20448;-79
2021/06/14 07:52:20;;;;;;;3.53;2.30;;;;;;;;;;5073490;28;20406;-76
2021/06/14 07:54:46;;;;;;;4.53;2.80;;;;;;;;;;5073686;28;20411;-78
2021/06/14 07:57:12;;;;;;;2.93;2.73;;;;;;;;;;5072125;28;20474;-79
2021/06/14 07:59:38;;;;;;;5.00;3.70;;;;;;;;;;5073641;28;20410;-78
2021/06/14 08:02:04;;;;;;;3.07;2.77;;;;;;;;;;5073466;28;20421;-81
2021/06/14 08:07:34;;;;;;;5.70;3.50;;;;;;;;;;5072890;28;20417;-76
2021/06/14 08:10:05;;;;;;;5.53;3.23;;;;;;;;;;5071095;28;20556;-76
2021/06/14 08:12:32;;;;;;;5.43;2.67;;;;;;;;;;5073019;28;20422;-75
2021/06/14 08:14:58;;;;;;;3.83;2.90;;;;;;;;;;5071553;28;20587;-73
2021/06/14 08:17:27;;;;;;;4.43;2.63;;;;;;;;;;5071338;28;20430;-71
2021/06/14 08:25:42;;;;;;;5.67;2.90;;;;;;;;;;5072643;28;20535;-74
2021/06/14 08:28:08;;;;;;;4.97;3.33;;;;;;;;;;5071269;28;20480;-74
2021/06/14 08:30:34;;;;;;;5.13;3.23;;;;;;;;;;5072503;28;20458;-76
2021/06/14 08:33:01;;;;;;;5.60;3.50;;;;;;;;;;5072766;28;20410;-74
2021/06/14 08:35:28;;;;;;;2.70;2.50;;;;;;;;;;5072352;28;20470;-76
2021/06/14 08:37:58;;;;;;;4.80;3.13;;;;;;;;;;5072647;28;20499;-75
2021/06/14 08:40:29;;;;;;;4.43;2.97;;;;;;;;;;5071230;28;20430;-74
2021/06/14 08:43:02;;;;;;;5.00;3.20;;;;;;;;;;5071035;28;20525;-75
2021/06/14 08:45:28;;;;;;;7.80;3.80;;;;;;;;;;5072097;28;20477;-74
2021/06/14 08:47:54;;;;;;;5.40;2.97;;;;;;;;;;5070038;28;20438;-74
2021/06/14 08:50:20;;;;;;;3.33;2.80;;;;;;;;;;5069964;28;20799;-76
2021/06/14 08:52:46;;;;;;;3.70;3.13;;;;;;;;;;5069978;28;20530;-73
2021/06/14 08:55:13;;;;;;;4.50;3.70;;;;;;;;;;5069765;28;20892;-70
2021/06/14 08:57:39;;;;;;;5.50;3.37;;;;;;;;;;5069864;28;20425;-70
2021/06/14 09:00:08;;;;;;;3.60;2.77;;;;;;;;;;5069888;28;20526;-72
2021/06/14 09:02:34;;;;;;;6.43;3.53;;;;;;;;;;5069544;28;20425;-70
2021/06/14 09:08:05;;;;;;;3.67;2.70;;;;;;;;;;5069750;28;20437;-71
2021/06/14 09:10:33;;;;;;;5.00;3.03;;;;;;;;;;5069685;28;20752;-73
2021/06/14 09:13:12;;;;;;;4.03;2.60;;;;;;;;;;5069367;28;20800;-71
2021/06/14 09:15:38;;;;;;;5.10;3.10;;;;;;;;;;5069375;28;20467;-70
2021/06/14 09:24:14;;;;;;;4.83;2.60;;;;;;;;;;5071668;28;20421;-71
2021/06/14 09:26:43;;;;;;;4.47;3.00;;;;;;;;;;5070608;28;20900;-69
2021/06/14 09:29:09;;;;;;;6.93;2.80;;;;;;;;;;5071610;28;20816;-70
2021/06/14 09:31:40;;;;;;;4.43;3.03;;;;;;;;;;5071512;28;20410;-70
2021/06/14 09:34:10;;;;;;;3.60;2.57;;;;;;;;;;5069566;28;20499;-73
2021/06/14 09:36:36;;;;;;;4.43;3.17;;;;;;;;;;5071216;28;20553;-70
2021/06/14 09:39:08;;;;;;;4.50;3.07;;;;;;;;;;5070290;28;20479;-70
2021/06/14 09:41:37;;;;;;;3.10;2.90;;;;;;;;;;5071514;28;20449;-70
2021/06/14 09:44:03;;;;;;;10.30;2.80;;;;;;;;;;5071145;28;20414;-71
2021/06/14 09:46:31;;;;;;;3.10;2.53;;;;;;;;;;5069786;28;20481;-70
2021/06/14 09:49:02;;;;;;;2.87;1.90;;;;;;;;;;5071097;28;20567;-70
2021/06/14 09:51:30;;;;;;;3.60;3.30;;;;;;;;;;5070961;28;20940;-70
2021/06/14 09:53:56;;;;;;;2.73;2.13;;;;;;;;;;5070844;28;20406;-71
2021/06/14 09:56:22;;;;;;;5.50;2.83;;;;;;;;;;5071220;28;20428;-70
2021/06/14 09:58:49;;;;;;;2.83;2.53;;;;;;;;;;5070772;28;20410;-69
2021/06/14 10:01:23;;;;;;;3.20;2.90;;;;;;;;;;5070788;28;20437;-70
2021/06/14 10:03:49;;;;;;;4.03;2.47;;;;;;;;;;5070838;28;20410;-69
2021/06/14 10:06:28;;;;;;;5.20;2.80;;;;;;;;;;5071278;28;20469;-69
2021/06/14 10:08:54;;;;;;;4.97;2.37;;;;;;;;;;5070976;28;20428;-70
2021/06/14 10:11:20;;;;;;;4.53;2.30;;;;;;;;;;5070736;28;20453;-70
2021/06/14 10:13:48;;;;;;;3.20;2.60;;;;;;;;;;5070816;28;20419;-71
2021/06/14 10:16:16;;;;;;;5.63;2.73;;;;;;;;;;5070775;28;20410;-72
2021/06/14 10:18:43;;;;;;;10.67;2.83;;;;;;;;;;5070399;28;20416;-70
2021/06/14 10:21:10;;;;;;;6.93;2.47;;;;;;;;;;5070757;28;20779;-70
2021/06/14 10:23:36;;;;;;;2.40;2.20;;;;;;;;;;5070531;28;20518;-71
2021/06/14 10:26:03;;;;;;;6.13;2.43;;;;;;;;;;5070602;28;20469;-70
2021/06/14 10:28:30;;;;;;;3.73;2.10;;;;;;;;;;5069030;28;20445;-71
2021/06/14 10:30:56;;;;;;;4.10;2.03;;;;;;;;;;5070729;28;20437;-71
2021/06/14 10:33:26;;;;;;;4.53;2.17;;;;;;;;;;5070269;28;20417;-71
2021/06/14 10:35:53;;;;;;;4.57;2.40;;;;;;;;;;5070212;28;20525;-70
2021/06/14 10:38:20;;;;;;;4.07;2.73;;;;;;;;;;5070678;28;20488;-71
2021/06/14 10:40:49;;;;;;;2.77;2.40;;;;;;;;;;5069172;28;20441;-71
2021/06/14 10:43:15;;;;;;;3.20;2.40;;;;;;;;;;5070515;28;20871;-71
2021/06/14 10:45:41;;;;;;;6.20;4.33;;;;;;;;;;5070339;28;20469;-71
2021/06/14 10:48:10;;;;;;;2.60;2.40;;;;;;;;;;5070416;28;20960;-71
2021/06/14 10:53:40;;;;;;;2.90;2.57;;;;;;;;;;5070087;28;20476;-71
2021/06/14 10:56:06;;;;;;;5.60;2.80;;;;;;;;;;5069299;28;20426;-71
2021/06/14 10:58:32;;;;;;;5.07;2.23;;;;;;;;;;5069986;28;20454;-70
2021/06/14 11:01:09;;;;;;;2.83;2.50;;;;;;;;;;5068952;28;20414;-70
2021/06/14 11:03:43;;;;;;;4.27;3.00;;;;;;;;;;5070464;28;20433;-72
2021/06/14 11:06:19;;;;;;;5.20;2.50;;;;;;;;;;5068697;28;20542;-70
2021/06/14 11:09:05;;;;;;;2.97;2.20;;;;;;;;;;5069804;28;20438;-70
2021/06/14 11:11:31;;;;;;;4.10;2.83;;;;;;;;;;5069760;28;20900;-71
2021/06/14 11:13:57;;;;;;;2.92;2.60;;;;;;;;;;5068251;28;20398;-71
2021/06/14 11:16:34;;;;;;;2.97;2.53;;;;;;;;;;5068394;28;20172;-70
2021/06/14 11:19:04;;;;;;;3.30;2.07;;;;;;;;;;5069904;28;20424;-71
2021/06/14 11:21:32;;;;;;;2.57;2.37;;;;;;;;;;5070897;28;20854;-70
2021/06/14 11:24:08;;;;;;;3.53;3.23;;;;;;;;;;5070793;28;20436;-70
2021/06/14 11:26:35;;;;;;;4.73;2.60;;;;;;;;;;5070907;28;20461;-69
2021/06/14 11:29:10;;;;;;;4.90;2.70;;;;;;;;;;5070643;28;20414;-71
2021/06/14 11:31:42;;;;;;;3.63;2.50;;;;;;;;;;5069307;28;20409;-70
2021/06/14 11:34:18;;;;;;;2.60;2.30;;;;;;;;;;5070434;28;20414;-71
2021/06/14 11:36:52;;;;;;;6.53;3.30;;;;;;;;;;5071562;28;20441;-71
2021/06/14 11:39:18;;;;;;;3.83;2.50;;;;;;;;;;5071357;28;20403;-70
2021/06/14 11:41:44;;;;;;;6.20;2.23;;;;;;;;;;5071314;28;20445;-70
2021/06/14 11:44:23;;;;;;;2.70;2.50;;;;;;;;;;5071547;28;20413;-71
2021/06/14 11:47:05;;;;;;;3.07;2.37;;;;;;;;;;5075053;28;20568;-70
2021/06/14 11:49:35;;;;;;;2.50;2.13;;;;;;;;;;5074280;28;20429;-70
2021/06/14 11:52:04;;;;;;;6.40;2.60;;;;;;;;;;5074782;28;20422;-70
2021/06/14 11:54:31;;;;;;;2.93;2.40;;;;;;;;;;5074825;28;20414;-70
2021/06/14 11:56:59;;;;;;;3.00;2.53;;;;;;;;;;5074823;28;20433;-70
2021/06/14 11:59:33;;;;;;;5.27;2.50;;;;;;;;;;5074572;28;20451;-70
2021/06/14 12:01:59;;;;;;;5.60;2.53;;;;;;;;;;5074526;28;20422;-71
2021/06/14 12:04:25;;;;;;;3.83;2.27;;;;;;;;;;5073920;28;20472;-70
2021/06/14 12:06:52;;;;;;;3.00;2.70;;;;;;;;;;5073432;28;20422;-71
2021/06/14 12:09:27;;;;;;;5.93;2.53;;;;;;;;;;5072703;28;20441;-71
2021/06/14 12:11:57;;;;;;;4.90;2.30;;;;;;;;;;5073753;28;20422;-70
2021/06/14 12:14:23;;;;;;;2.70;2.50;;;;;;;;;;5073588;28;20509;-71
2021/06/14 12:16:55;;;;;;;3.40;2.30;;;;;;;;;;5074226;28;20450;-76
2021/06/14 12:19:21;;;;;;;4.90;2.50;;;;;;;;;;5073959;28;20897;-77
2021/06/14 12:21:51;;;;;;;5.43;2.43;;;;;;;;;;5073470;28;20442;-79
2021/06/14 12:24:18;;;;;;;3.77;2.53;;;;;;;;;;5072172;28;20422;-79
2021/06/14 12:26:44;;;;;;;3.20;2.40;;;;;;;;;;5073395;28;20948;-78
2021/06/14 12:29:23;;;;;;;5.90;2.87;;;;;;;;;;5073454;28;20876;-80
2021/06/14 12:32:03;;;;;;;4.87;2.60;;;;;;;;;;5073414;28;20577;-79
2021/06/14 12:34:29;;;;;;;2.43;2.23;;;;;;;;;;5072982;28;20424;-78
2021/06/14 12:37:00;;;;;;;4.30;2.43;;;;;;;;;;5072167;28;20458;-78
2021/06/14 12:39:26;;;;;;;3.60;2.30;;;;;;;;;;5073161;28;20473;-78
2021/06/14 12:41:52;;;;;;;4.13;2.03;;;;;;;;;;5073391;28;20429;-79
2021/06/14 12:44:20;;;;;;;5.50;3.33;;;;;;;;;;5073232;28;20513;-81
2021/06/14 12:46:46;;;;;;;2.47;2.20;;;;;;;;;;5072929;28;20964;-79
2021/06/14 12:49:12;;;;;;;3.70;2.43;;;;;;;;;;5072690;28;20417;-78
2021/06/14 12:51:38;;;;;;;4.57;2.50;;;;;;;;;;5073042;28;20426;-77
2021/06/14 12:54:05;;;;;;;2.33;2.13;;;;;;;;;;5072951;28;20423;-79
2021/06/14 12:56:31;;;;;;;5.00;2.53;;;;;;;;;;5072762;28;20924;-78
2021/06/14 12:58:57;;;;;;;5.40;2.60;;;;;;;;;;5072828;28;20413;-79
2021/06/14 13:01:24;;;;;;;2.87;2.50;;;;;;;;;;5071812;28;20489;-79
2021/06/14 13:03:50;;;;;;;3.00;2.57;;;;;;;;;;5072542;28;20511;-79
2021/06/14 13:09:20;;;;;;;4.27;2.40;;;;;;;;;;5072523;28;20413;-75
2021/06/14 13:11:47;;;;;;;4.57;2.37;;;;;;;;;;5072666;28;20413;-77
2021/06/14 13:14:13;;;;;;;6.27;2.33;;;;;;;;;;5072470;28;20500;-76
2021/06/14 13:16:50;;;;;;;2.47;2.27;;;;;;;;;;5072293;28;20414;-77
2021/06/14 13:19:22;;;;;;;4.80;2.60;;;;;;;;;;5072949;28;20414;-78
2021/06/14 13:24:52;;;;;;;5.00;2.30;;;;;;;;;;5073844;28;20453;-79
2021/06/14 13:27:20;;;;;;;2.73;2.33;;;;;;;;;;5073499;28;20483;-80
2021/06/14 13:29:55;;;;;;;6.67;2.10;;;;;;;;;;5076262;28;20471;-78
2021/06/14 13:32:33;;;;;;;2.37;2.10;;;;;;;;;;5073100;28;20420;-78
2021/06/14 13:35:00;;;;;;;3.40;2.40;;;;;;;;;;5072767;28;20477;-73
2021/06/14 13:37:40;;;;;;;2.60;2.10;;;;;;;;;;5072071;28;20422;-79
2021/06/14 13:40:10;;;;;;;3.57;2.10;;;;;;;;;;5072252;28;20449;-78
2021/06/14 13:42:51;;;;;;;2.47;2.20;;;;;;;;;;5071769;28;20695;-78
2021/06/14 13:45:28;;;;;;;3.03;1.87;;;;;;;;;;5071516;28;20460;-80
2021/06/14 13:47:58;;;;;;;2.00;1.73;;;;;;;;;;5071932;28;20908;-78
2021/06/14 13:50:24;;;;;;;2.80;2.30;;;;;;;;;;5072838;28;20421;-80
2021/06/14 13:52:50;;;;;;;3.17;2.17;;;;;;;;;;5070740;28;20435;-82
2021/06/14 13:55:21;;;;;;;3.00;2.60;;;;;;;;;;5072968;28;20426;-78
2021/06/14 13:57:51;;;;;;;4.00;1.93;;;;;;;;;;5071581;28;20425;-80
2021/06/14 14:00:17;;;;;;;2.70;1.93;;;;;;;;;;5071675;28;20418;-78
2021/06/14 14:02:50;;;;;;;4.20;1.83;;;;;;;;;;5071479;28;20438;-79
2021/06/14 14:05:29;;;;;;;3.27;1.83;;;;;;;;;;5068902;28;20500;-76
2021/06/14 14:07:55;;;;;;;1.93;1.80;;;;;;;;;;5069622;28;20781;-81
2021/06/14 14:10:22;;;;;;;2.50;2.30;;;;;;;;;;5071714;28;20440;-80
2021/06/14 14:12:48;;;;;;;3.60;2.40;;;;;;;;;;5071610;28;20417;-80
2021/06/14 14:15:14;;;;;;;3.53;2.20;;;;;;;;;;5073499;28;20434;-79
2021/06/14 14:17:41;;;;;;;3.07;1.70;;;;;;;;;;5072934;28;20801;-80
2021/06/14 14:20:08;;;;;;;2.33;2.03;;;;;;;;;;5072893;28;20845;-77
2021/06/14 14:22:34;;;;;;;2.60;2.00;;;;;;;;;;5071426;28;20434;-83
2021/06/14 14:25:00;;;;;;;2.87;1.70;;;;;;;;;;5072882;28;20919;-81
2021/06/14 14:27:28;;;;;;;1.70;1.57;;;;;;;;;;5068461;28;20464;-76
2021/06/14 14:29:57;;;;;;;4.93;2.10;;;;;;;;;;5071437;28;20889;-78
2021/06/14 14:32:23;;;;;;;4.40;2.53;;;;;;;;;;5071426;28;20571;-80
2021/06/14 14:34:50;;;;;;;2.50;2.30;;;;;;;;;;5071244;28;20468;-81
2021/06/14 14:40:20;;;;;;;2.70;1.70;;;;;;;;;;5071540;28;20552;-79
2021/06/14 14:42:50;;;;;;;4.80;1.63;;;;;;;;;;5071725;28;20433;-81
2021/06/14 14:45:17;;;;;;;2.40;2.20;;;;;;;;;;5070130;28;20568;-80
2021/06/14 14:47:43;;;;;;;2.83;2.13;;;;;;;;;;5071657;28;20908;-82
2021/06/14 14:50:13;;;;;;;2.10;1.90;;;;;;;;;;5070174;28;20525;-83
2021/06/14 14:55:43;;;;;;;3.17;1.90;;;;;;;;;;5072753;28;20435;-82
2021/06/14 14:58:09;;;;;;;1.50;1.40;;;;;;;;;;5072215;28;20714;-79
2021/06/14 15:00:35;;;;;;;2.03;1.40;;;;;;;;;;5070451;28;20988;-76
2021/06/14 15:03:02;;;;;;;3.00;1.60;;;;;;;;;;5072132;28;20433;-80
2021/06/14 15:05:28;;;;;;;2.77;1.70;;;;;;;;;;5081022;28;20469;-79
2021/06/14 15:07:54;;;;;;;2.10;1.60;;;;;;;;;;5072870;28;20418;-79
2021/06/14 15:10:21;;;;;;;4.43;1.63;;;;;;;;;;5073934;28;20418;-77
2021/06/14 15:12:47;;;;;;;3.10;1.80;;;;;;;;;;5072770;28;20494;-81
2021/06/14 15:15:15;;;;;;;3.30;2.03;;;;;;;;;;5072800;28;20422;-81
2021/06/14 15:17:42;;;;;;;2.83;1.80;;;;;;;;;;5072837;28;20406;-78
2021/06/14 15:20:09;;;;;;;2.13;1.80;;;;;;;;;;5073261;28;20426;-80
2021/06/14 15:25:40;;;;;;;1.97;1.73;;;;;;;;;;5075594;28;20877;-80
2021/06/14 15:28:06;;;;;;;2.00;1.70;;;;;;;;;;5075386;28;20449;-81
2021/06/14 15:30:34;;;;;;;2.23;1.60;;;;;;;;;;5079886;28;20521;-80
2021/06/14 15:33:02;;;;;;;2.37;1.77;;;;;;;;;;5081119;28;20414;-80
2021/06/14 15:41:37;;;;;;;4.80;3.13;;;;;;;;;;5080247;28;20420;-80
2021/06/14 15:44:04;;;;;;;2.00;1.80;;;;;;;;;;5080462;28;20426;-78
2021/06/14 15:46:30;;;;;;;1.97;1.80;;;;;;;;;;5082765;28;20466;-77
2021/06/14 15:48:57;;;;;;;3.97;1.90;;;;;;;;;;5079443;28;21000;-82
2021/06/14 15:51:24;;;;;;;3.13;2.83;;;;;;;;;;5076315;28;20641;-72
2021/06/14 15:53:50;;;;;;;5.20;1.50;;;;;;;;;;5073784;28;20425;-77
2021/06/14 15:56:17;;;;;;;1.90;1.53;;;;;;;;;;5076080;28;20761;-78
2021/06/14 15:58:43;;;;;;;2.10;1.90;;;;;;;;;;5074562;28;20418;-68
2021/06/14 16:01:09;;;;;;;4.53;2.03;;;;;;;;;;5072461;28;20501;-68
2021/06/14 16:03:35;;;;;;;2.00;1.80;;;;;;;;;;5071607;28;20410;-69
2021/06/14 16:06:01;;;;;;;1.90;1.70;;;;;;;;;;5072844;28;20930;-68
2021/06/14 16:08:27;;;;;;;3.03;2.33;;;;;;;;;;5073073;28;20410;-68
2021/06/14 16:10:53;;;;;;;2.50;2.07;;;;;;;;;;5072629;28;20415;-68
2021/06/14 16:13:20;;;;;;;3.03;2.50;;;;;;;;;;5073002;28;20459;-68
2021/06/14 16:15:46;;;;;;;2.93;1.90;;;;;;;;;;5072607;28;20498;-68
2021/06/14 16:18:12;;;;;;;2.10;1.87;;;;;;;;;;5072531;28;20403;-68
2021/06/14 16:20:39;;;;;;;2.00;1.53;;;;;;;;;;5072395;28;20429;-68
2021/06/14 16:26:08;;;;;;;6.27;1.80;;;;;;;;;;5072563;28;20903;-68
2021/06/14 16:28:34;;;;;;;2.30;1.80;;;;;;;;;;5073045;28;20868;-69
2021/06/14 16:31:00;;;;;;;3.03;2.80;;;;;;;;;;5071910;28;20856;-68
2021/06/14 16:33:26;;;;;;;2.47;2.27;;;;;;;;;;5070409;28;20425;-69
2021/06/14 16:35:52;;;;;;;2.47;2.27;;;;;;;;;;5072358;28;20845;-68
2021/06/14 16:38:18;;;;;;;2.50;2.03;;;;;;;;;;5072436;28;20410;-69
2021/06/14 16:40:44;;;;;;;1.50;1.40;;;;;;;;;;5072371;28;20418;-69